Terminal Aerodrome Forecast
Issued by NWS

Home | Current Version | Previous Version | Text Only | Print | Product List | Glossary On
Versions: 1 2 3 4 5 6 7 8 9 10 11 12 13 14
000
FTUS44 KSJT 220520
TAFSOA
TAF
KSOA 220520Z 2206/2306 16010KT P6SM SCT014
     FM221000 16008KT 5SM BR OVC008
     FM221500 16012KT 5SM HZ BKN015
     FM221800 17011KT P6SM SCT050=

USA.gov is the U.S. government's official web portal to all federal, state and local government web resources and services.